sensor_id;sensor_type;location;lat;lon;timestamp;P1;durP1;ratioP1;P2;durP2;ratioP2
58468;SDS011;44257;44.804;10.220;2022-10-20T00:01:32;9.15;;;4.65;;
58468;SDS011;44257;44.804;10.220;2022-10-20T00:04:08;10.80;;;6.35;;
58468;SDS011;44257;44.804;10.220;2022-10-20T00:06:33;19.45;;;5.93;;
58468;SDS011;44257;44.804;10.220;2022-10-20T00:09:00;11.15;;;6.38;;
58468;SDS011;44257;44.804;10.220;2022-10-20T00:11:27;10.85;;;5.88;;
58468;SDS011;44257;44.804;10.220;2022-10-20T00:13:54;8.10;;;5.22;;
58468;SDS011;44257;44.804;10.220;2022-10-20T00:16:21;10.98;;;6.95;;
58468;SDS011;44257;44.804;10.220;2022-10-20T00:18:48;8.23;;;4.05;;
58468;SDS011;44257;44.804;10.220;2022-10-20T00:21:15;13.55;;;5.50;;
58468;SDS011;44257;44.804;10.220;2022-10-20T00:23:43;10.82;;;5.45;;
58468;SDS011;44257;44.804;10.220;2022-10-20T00:26:10;8.38;;;5.53;;
58468;SDS011;44257;44.804;10.220;2022-10-20T00:28:38;10.13;;;4.82;;
58468;SDS011;44257;44.804;10.220;2022-10-20T00:31:04;10.68;;;6.03;;
58468;SDS011;44257;44.804;10.220;2022-10-20T00:33:31;11.18;;;5.65;;
58468;SDS011;44257;44.804;10.220;2022-10-20T00:35:57;10.85;;;6.60;;
58468;SDS011;44257;44.804;10.220;2022-10-20T00:38:24;7.35;;;4.38;;
58468;SDS011;44257;44.804;10.220;2022-10-20T00:40:50;12.77;;;5.82;;
58468;SDS011;44257;44.804;10.220;2022-10-20T00:43:16;11.65;;;6.05;;
58468;SDS011;44257;44.804;10.220;2022-10-20T00:45:44;7.95;;;5.07;;
58468;SDS011;44257;44.804;10.220;2022-10-20T00:48:21;13.00;;;6.47;;
58468;SDS011;44257;44.804;10.220;2022-10-20T00:50:52;10.98;;;5.35;;
58468;SDS011;44257;44.804;10.220;2022-10-20T00:53:21;7.20;;;4.68;;
58468;SDS011;44257;44.804;10.220;2022-10-20T00:55:49;11.00;;;4.28;;
58468;SDS011;44257;44.804;10.220;2022-10-20T00:58:17;7.03;;;4.30;;
58468;SDS011;44257;44.804;10.220;2022-10-20T01:00:43;8.68;;;5.10;;
58468;SDS011;44257;44.804;10.220;2022-10-20T01:03:14;11.13;;;5.50;;
58468;SDS011;44257;44.804;10.220;2022-10-20T01:05:44;7.68;;;4.10;;
58468;SDS011;44257;44.804;10.220;2022-10-20T01:08:10;9.18;;;5.55;;
58468;SDS011;44257;44.804;10.220;2022-10-20T01:10:40;6.95;;;4.90;;
58468;SDS011;44257;44.804;10.220;2022-10-20T01:13:42;7.53;;;4.90;;
58468;SDS011;44257;44.804;10.220;2022-10-20T01:19:11;8.77;;;4.53;;
58468;SDS011;44257;44.804;10.220;2022-10-20T01:24:33;8.55;;;4.05;;
58468;SDS011;44257;44.804;10.220;2022-10-20T01:29:52;6.03;;;3.65;;
58468;SDS011;44257;44.804;10.220;2022-10-20T01:32:37;7.32;;;4.05;;
58468;SDS011;44257;44.804;10.220;2022-10-20T01:35:27;6.68;;;3.85;;
58468;SDS011;44257;44.804;10.220;2022-10-20T01:41:32;9.35;;;3.88;;
58468;SDS011;44257;44.804;10.220;2022-10-20T01:44:03;19.48;;;5.50;;
58468;SDS011;44257;44.804;10.220;2022-10-20T01:46:33;7.63;;;3.92;;
58468;SDS011;44257;44.804;10.220;2022-10-20T01:49:01;7.60;;;4.13;;
58468;SDS011;44257;44.804;10.220;2022-10-20T01:51:28;7.13;;;4.35;;
58468;SDS011;44257;44.804;10.220;2022-10-20T01:53:54;6.25;;;4.35;;
58468;SDS011;44257;44.804;10.220;2022-10-20T01:56:25;7.63;;;4.30;;
58468;SDS011;44257;44.804;10.220;2022-10-20T02:01:34;7.97;;;5.20;;
58468;SDS011;44257;44.804;10.220;2022-10-20T02:04:23;8.85;;;4.30;;
58468;SDS011;44257;44.804;10.220;2022-10-20T02:07:05;6.88;;;4.07;;
58468;SDS011;44257;44.804;10.220;2022-10-20T02:09:40;6.57;;;5.05;;
58468;SDS011;44257;44.804;10.220;2022-10-20T02:12:21;8.40;;;4.18;;
58468;SDS011;44257;44.804;10.220;2022-10-20T02:14:52;4.90;;;3.25;;
58468;SDS011;44257;44.804;10.220;2022-10-20T02:17:19;9.73;;;3.95;;
58468;SDS011;44257;44.804;10.220;2022-10-20T02:19:46;7.60;;;4.05;;
58468;SDS011;44257;44.804;10.220;2022-10-20T02:22:14;7.88;;;4.07;;
58468;SDS011;44257;44.804;10.220;2022-10-20T02:24:43;8.00;;;3.92;;
58468;SDS011;44257;44.804;10.220;2022-10-20T02:27:12;4.07;;;3.20;;
58468;SDS011;44257;44.804;10.220;2022-10-20T02:29:41;7.03;;;4.22;;
58468;SDS011;44257;44.804;10.220;2022-10-20T02:32:12;6.00;;;3.15;;
58468;SDS011;44257;44.804;10.220;2022-10-20T02:34:41;7.65;;;4.78;;
58468;SDS011;44257;44.804;10.220;2022-10-20T02:37:08;9.23;;;3.80;;
58468;SDS011;44257;44.804;10.220;2022-10-20T02:39:34;7.82;;;4.38;;
58468;SDS011;44257;44.804;10.220;2022-10-20T02:42:00;7.90;;;3.58;;
58468;SDS011;44257;44.804;10.220;2022-10-20T02:44:26;5.38;;;3.45;;
58468;SDS011;44257;44.804;10.220;2022-10-20T02:46:52;7.30;;;3.38;;
58468;SDS011;44257;44.804;10.220;2022-10-20T02:49:18;7.00;;;4.13;;
58468;SDS011;44257;44.804;10.220;2022-10-20T02:51:45;7.50;;;4.55;;
58468;SDS011;44257;44.804;10.220;2022-10-20T02:54:11;5.30;;;3.58;;
58468;SDS011;44257;44.804;10.220;2022-10-20T02:56:37;8.13;;;4.70;;
58468;SDS011;44257;44.804;10.220;2022-10-20T02:59:03;6.70;;;3.30;;
58468;SDS011;44257;44.804;10.220;2022-10-20T03:01:28;28.67;;;5.07;;
58468;SDS011;44257;44.804;10.220;2022-10-20T03:03:54;6.15;;;4.15;;
58468;SDS011;44257;44.804;10.220;2022-10-20T03:06:24;9.23;;;4.95;;
58468;SDS011;44257;44.804;10.220;2022-10-20T03:08:50;6.72;;;3.05;;
58468;SDS011;44257;44.804;10.220;2022-10-20T03:11:16;5.95;;;3.65;;
58468;SDS011;44257;44.804;10.220;2022-10-20T03:13:42;4.35;;;3.58;;
58468;SDS011;44257;44.804;10.220;2022-10-20T03:16:07;7.40;;;4.75;;
58468;SDS011;44257;44.804;10.220;2022-10-20T03:18:33;5.68;;;3.63;;
58468;SDS011;44257;44.804;10.220;2022-10-20T03:20:59;7.65;;;4.35;;
58468;SDS011;44257;44.804;10.220;2022-10-20T03:23:25;6.18;;;3.38;;
58468;SDS011;44257;44.804;10.220;2022-10-20T03:25:51;7.85;;;4.65;;
58468;SDS011;44257;44.804;10.220;2022-10-20T03:28:17;9.68;;;4.38;;
58468;SDS011;44257;44.804;10.220;2022-10-20T03:30:42;7.53;;;4.43;;
58468;SDS011;44257;44.804;10.220;2022-10-20T03:33:10;8.88;;;4.75;;
58468;SDS011;44257;44.804;10.220;2022-10-20T03:35:36;8.23;;;4.18;;
58468;SDS011;44257;44.804;10.220;2022-10-20T03:38:02;9.10;;;4.15;;
58468;SDS011;44257;44.804;10.220;2022-10-20T03:40:28;5.30;;;3.38;;
58468;SDS011;44257;44.804;10.220;2022-10-20T03:42:54;8.48;;;3.90;;
58468;SDS011;44257;44.804;10.220;2022-10-20T03:45:20;7.13;;;4.18;;
58468;SDS011;44257;44.804;10.220;2022-10-20T03:47:45;8.73;;;3.63;;
58468;SDS011;44257;44.804;10.220;2022-10-20T03:50:11;9.35;;;3.83;;
58468;SDS011;44257;44.804;10.220;2022-10-20T03:52:37;9.30;;;4.15;;
58468;SDS011;44257;44.804;10.220;2022-10-20T03:55:03;7.00;;;4.03;;
58468;SDS011;44257;44.804;10.220;2022-10-20T03:57:29;9.75;;;3.40;;
58468;SDS011;44257;44.804;10.220;2022-10-20T03:59:55;9.77;;;4.38;;
58468;SDS011;44257;44.804;10.220;2022-10-20T04:04:59;4.55;;;3.17;;
58468;SDS011;44257;44.804;10.220;2022-10-20T04:07:26;6.90;;;3.88;;
58468;SDS011;44257;44.804;10.220;2022-10-20T04:09:52;6.38;;;4.43;;
58468;SDS011;44257;44.804;10.220;2022-10-20T04:12:17;5.68;;;3.75;;
58468;SDS011;44257;44.804;10.220;2022-10-20T04:14:43;6.75;;;4.13;;
58468;SDS011;44257;44.804;10.220;2022-10-20T04:17:09;8.85;;;4.28;;
58468;SDS011;44257;44.804;10.220;2022-10-20T04:19:35;9.20;;;4.43;;
58468;SDS011;44257;44.804;10.220;2022-10-20T04:22:01;6.20;;;4.07;;
58468;SDS011;44257;44.804;10.220;2022-10-20T04:24:27;9.05;;;3.95;;
58468;SDS011;44257;44.804;10.220;2022-10-20T04:26:52;6.53;;;4.53;;
58468;SDS011;44257;44.804;10.220;2022-10-20T04:29:19;6.30;;;3.60;;
58468;SDS011;44257;44.804;10.220;2022-10-20T04:31:44;16.58;;;4.80;;
58468;SDS011;44257;44.804;10.220;2022-10-20T04:34:10;7.43;;;3.72;;
58468;SDS011;44257;44.804;10.220;2022-10-20T04:36:36;9.82;;;5.20;;
58468;SDS011;44257;44.804;10.220;2022-10-20T04:39:04;6.25;;;4.97;;
58468;SDS011;44257;44.804;10.220;2022-10-20T04:41:30;7.20;;;4.68;;
58468;SDS011;44257;44.804;10.220;2022-10-20T04:43:56;4.55;;;3.42;;
58468;SDS011;44257;44.804;10.220;2022-10-20T04:46:22;5.55;;;2.95;;
58468;SDS011;44257;44.804;10.220;2022-10-20T04:48:48;10.85;;;5.28;;
58468;SDS011;44257;44.804;10.220;2022-10-20T04:51:15;8.35;;;4.10;;
58468;SDS011;44257;44.804;10.220;2022-10-20T04:53:41;6.53;;;3.53;;
58468;SDS011;44257;44.804;10.220;2022-10-20T04:56:07;6.55;;;3.65;;
58468;SDS011;44257;44.804;10.220;2022-10-20T04:58:35;5.93;;;4.28;;
58468;SDS011;44257;44.804;10.220;2022-10-20T05:01:05;10.20;;;4.63;;
58468;SDS011;44257;44.804;10.220;2022-10-20T05:03:33;9.30;;;4.77;;
58468;SDS011;44257;44.804;10.220;2022-10-20T05:08:57;7.80;;;4.07;;
58468;SDS011;44257;44.804;10.220;2022-10-20T05:11:24;6.88;;;3.67;;
58468;SDS011;44257;44.804;10.220;2022-10-20T05:13:51;8.48;;;4.13;;
58468;SDS011;44257;44.804;10.220;2022-10-20T05:16:17;9.75;;;4.00;;
58468;SDS011;44257;44.804;10.220;2022-10-20T05:18:44;9.32;;;3.88;;
58468;SDS011;44257;44.804;10.220;2022-10-20T05:21:20;10.13;;;4.90;;
58468;SDS011;44257;44.804;10.220;2022-10-20T05:23:48;8.20;;;4.40;;
58468;SDS011;44257;44.804;10.220;2022-10-20T05:26:19;9.32;;;5.32;;
58468;SDS011;44257;44.804;10.220;2022-10-20T05:28:46;5.82;;;3.53;;
58468;SDS011;44257;44.804;10.220;2022-10-20T05:31:14;8.45;;;4.72;;
58468;SDS011;44257;44.804;10.220;2022-10-20T05:33:42;8.27;;;4.38;;
58468;SDS011;44257;44.804;10.220;2022-10-20T05:36:11;5.70;;;3.85;;
58468;SDS011;44257;44.804;10.220;2022-10-20T05:38:38;4.80;;;3.72;;
58468;SDS011;44257;44.804;10.220;2022-10-20T05:41:05;6.57;;;4.30;;
58468;SDS011;44257;44.804;10.220;2022-10-20T05:43:31;7.50;;;4.45;;
58468;SDS011;44257;44.804;10.220;2022-10-20T05:45:57;6.95;;;3.38;;
58468;SDS011;44257;44.804;10.220;2022-10-20T05:48:23;6.90;;;3.72;;
58468;SDS011;44257;44.804;10.220;2022-10-20T05:50:49;17.40;;;4.68;;
58468;SDS011;44257;44.804;10.220;2022-10-20T05:53:14;6.47;;;3.95;;
58468;SDS011;44257;44.804;10.220;2022-10-20T05:55:41;7.95;;;5.45;;
58468;SDS011;44257;44.804;10.220;2022-10-20T05:58:07;5.50;;;3.80;;
58468;SDS011;44257;44.804;10.220;2022-10-20T06:00:32;8.20;;;4.22;;
58468;SDS011;44257;44.804;10.220;2022-10-20T06:03:06;6.78;;;4.75;;
58468;SDS011;44257;44.804;10.220;2022-10-20T06:05:32;5.68;;;3.50;;
58468;SDS011;44257;44.804;10.220;2022-10-20T06:07:58;6.78;;;4.30;;
58468;SDS011;44257;44.804;10.220;2022-10-20T06:10:24;8.38;;;4.10;;
58468;SDS011;44257;44.804;10.220;2022-10-20T06:12:50;7.05;;;3.92;;
58468;SDS011;44257;44.804;10.220;2022-10-20T06:15:15;10.50;;;4.13;;
58468;SDS011;44257;44.804;10.220;2022-10-20T06:17:41;6.03;;;3.90;;
58468;SDS011;44257;44.804;10.220;2022-10-20T06:20:10;8.93;;;4.90;;
58468;SDS011;44257;44.804;10.220;2022-10-20T06:22:36;14.07;;;4.88;;
58468;SDS011;44257;44.804;10.220;2022-10-20T06:25:02;8.93;;;4.50;;
58468;SDS011;44257;44.804;10.220;2022-10-20T06:27:28;6.53;;;3.60;;
58468;SDS011;44257;44.804;10.220;2022-10-20T06:29:54;10.98;;;4.65;;
58468;SDS011;44257;44.804;10.220;2022-10-20T06:32:20;8.75;;;4.70;;
58468;SDS011;44257;44.804;10.220;2022-10-20T06:34:45;10.57;;;4.90;;
58468;SDS011;44257;44.804;10.220;2022-10-20T06:37:11;9.35;;;4.32;;
58468;SDS011;44257;44.804;10.220;2022-10-20T06:39:37;11.50;;;4.55;;
58468;SDS011;44257;44.804;10.220;2022-10-20T06:42:03;8.13;;;3.92;;
58468;SDS011;44257;44.804;10.220;2022-10-20T06:44:30;7.15;;;4.78;;
58468;SDS011;44257;44.804;10.220;2022-10-20T06:46:55;9.55;;;5.05;;
58468;SDS011;44257;44.804;10.220;2022-10-20T06:49:21;6.65;;;3.60;;
58468;SDS011;44257;44.804;10.220;2022-10-20T06:51:48;11.38;;;6.40;;
58468;SDS011;44257;44.804;10.220;2022-10-20T06:54:15;8.98;;;5.10;;
58468;SDS011;44257;44.804;10.220;2022-10-20T06:56:40;6.55;;;4.00;;
58468;SDS011;44257;44.804;10.220;2022-10-20T06:59:06;5.63;;;3.15;;
58468;SDS011;44257;44.804;10.220;2022-10-20T07:01:33;6.22;;;4.97;;
58468;SDS011;44257;44.804;10.220;2022-10-20T07:04:02;7.28;;;4.53;;
58468;SDS011;44257;44.804;10.220;2022-10-20T07:06:31;9.93;;;4.90;;
58468;SDS011;44257;44.804;10.220;2022-10-20T07:08:59;5.70;;;3.55;;
58468;SDS011;44257;44.804;10.220;2022-10-20T07:11:28;10.23;;;5.18;;
58468;SDS011;44257;44.804;10.220;2022-10-20T07:13:58;10.38;;;5.65;;
58468;SDS011;44257;44.804;10.220;2022-10-20T07:16:25;4.78;;;3.45;;
58468;SDS011;44257;44.804;10.220;2022-10-20T07:18:53;9.50;;;4.18;;
58468;SDS011;44257;44.804;10.220;2022-10-20T07:21:21;8.13;;;4.22;;
58468;SDS011;44257;44.804;10.220;2022-10-20T07:23:49;6.05;;;4.35;;
58468;SDS011;44257;44.804;10.220;2022-10-20T07:26:16;8.38;;;3.88;;
58468;SDS011;44257;44.804;10.220;2022-10-20T07:28:51;6.28;;;3.67;;
58468;SDS011;44257;44.804;10.220;2022-10-20T07:31:20;12.05;;;5.55;;
58468;SDS011;44257;44.804;10.220;2022-10-20T07:33:47;9.18;;;3.65;;
58468;SDS011;44257;44.804;10.220;2022-10-20T07:36:14;8.43;;;4.93;;
58468;SDS011;44257;44.804;10.220;2022-10-20T07:38:54;9.27;;;4.88;;
58468;SDS011;44257;44.804;10.220;2022-10-20T07:41:21;8.07;;;4.95;;
58468;SDS011;44257;44.804;10.220;2022-10-20T07:43:48;7.90;;;4.43;;
58468;SDS011;44257;44.804;10.220;2022-10-20T07:46:15;6.40;;;3.83;;
58468;SDS011;44257;44.804;10.220;2022-10-20T07:48:41;9.45;;;5.03;;
58468;SDS011;44257;44.804;10.220;2022-10-20T07:53:55;8.95;;;4.97;;
58468;SDS011;44257;44.804;10.220;2022-10-20T07:56:23;16.80;;;7.72;;
58468;SDS011;44257;44.804;10.220;2022-10-20T07:58:49;17.92;;;7.47;;
58468;SDS011;44257;44.804;10.220;2022-10-20T08:01:15;18.92;;;9.68;;
58468;SDS011;44257;44.804;10.220;2022-10-20T08:03:41;16.35;;;10.73;;
58468;SDS011;44257;44.804;10.220;2022-10-20T08:06:07;30.10;;;11.13;;
58468;SDS011;44257;44.804;10.220;2022-10-20T08:08:33;22.00;;;12.35;;
58468;SDS011;44257;44.804;10.220;2022-10-20T08:10:59;18.25;;;11.25;;
58468;SDS011;44257;44.804;10.220;2022-10-20T08:13:25;30.95;;;15.25;;
58468;SDS011;44257;44.804;10.220;2022-10-20T08:15:52;22.45;;;12.82;;
58468;SDS011;44257;44.804;10.220;2022-10-20T08:18:18;26.98;;;16.23;;
58468;SDS011;44257;44.804;10.220;2022-10-20T08:20:44;27.73;;;15.48;;
58468;SDS011;44257;44.804;10.220;2022-10-20T08:23:10;23.70;;;13.23;;
58468;SDS011;44257;44.804;10.220;2022-10-20T08:25:37;25.67;;;14.50;;
58468;SDS011;44257;44.804;10.220;2022-10-20T08:28:03;25.40;;;13.68;;
58468;SDS011;44257;44.804;10.220;2022-10-20T08:30:29;20.95;;;12.18;;
58468;SDS011;44257;44.804;10.220;2022-10-20T08:32:55;28.08;;;16.42;;
58468;SDS011;44257;44.804;10.220;2022-10-20T08:35:21;26.98;;;15.75;;
58468;SDS011;44257;44.804;10.220;2022-10-20T08:37:47;27.55;;;13.25;;
58468;SDS011;44257;44.804;10.220;2022-10-20T08:40:32;32.60;;;16.10;;
58468;SDS011;44257;44.804;10.220;2022-10-20T08:43:01;26.38;;;16.25;;
58468;SDS011;44257;44.804;10.220;2022-10-20T08:45:27;27.80;;;15.57;;
58468;SDS011;44257;44.804;10.220;2022-10-20T08:47:54;30.17;;;16.85;;
58468;SDS011;44257;44.804;10.220;2022-10-20T08:50:21;26.35;;;14.18;;
58468;SDS011;44257;44.804;10.220;2022-10-20T08:52:53;33.72;;;15.75;;
58468;SDS011;44257;44.804;10.220;2022-10-20T08:57:59;29.48;;;17.90;;
58468;SDS011;44257;44.804;10.220;2022-10-20T09:00:29;32.75;;;16.60;;
58468;SDS011;44257;44.804;10.220;2022-10-20T09:02:59;28.52;;;15.48;;
58468;SDS011;44257;44.804;10.220;2022-10-20T09:05:34;38.42;;;19.05;;
58468;SDS011;44257;44.804;10.220;2022-10-20T09:08:01;30.45;;;16.50;;
58468;SDS011;44257;44.804;10.220;2022-10-20T09:10:31;35.15;;;20.33;;
58468;SDS011;44257;44.804;10.220;2022-10-20T09:13:05;44.03;;;20.92;;
58468;SDS011;44257;44.804;10.220;2022-10-20T09:15:50;30.80;;;18.75;;
58468;SDS011;44257;44.804;10.220;2022-10-20T09:18:18;33.40;;;18.98;;
58468;SDS011;44257;44.804;10.220;2022-10-20T09:20:50;36.15;;;18.63;;
58468;SDS011;44257;44.804;10.220;2022-10-20T09:23:36;32.10;;;18.52;;
58468;SDS011;44257;44.804;10.220;2022-10-20T09:26:09;30.40;;;17.65;;
58468;SDS011;44257;44.804;10.220;2022-10-20T09:28:47;35.58;;;20.83;;
58468;SDS011;44257;44.804;10.220;2022-10-20T09:31:35;34.70;;;18.42;;
58468;SDS011;44257;44.804;10.220;2022-10-20T09:39:38;37.75;;;16.85;;
58468;SDS011;44257;44.804;10.220;2022-10-20T09:42:13;32.95;;;17.05;;
58468;SDS011;44257;44.804;10.220;2022-10-20T09:44:53;32.28;;;17.23;;
58468;SDS011;44257;44.804;10.220;2022-10-20T12:08:20;32.88;;;17.38;;
58468;SDS011;44257;44.804;10.220;2022-10-20T12:37:27;31.50;;;16.52;;
58468;SDS011;44257;44.804;10.220;2022-10-20T12:42:32;32.88;;;15.93;;
58468;SDS011;44257;44.804;10.220;2022-10-20T12:47:56;31.65;;;16.92;;
58468;SDS011;44257;44.804;10.220;2022-10-20T12:53:11;38.03;;;19.52;;
58468;SDS011;44257;44.804;10.220;2022-10-20T12:55:41;28.42;;;15.48;;
58468;SDS011;44257;44.804;10.220;2022-10-20T13:19:23;32.15;;;17.05;;
58468;SDS011;44257;44.804;10.220;2022-10-20T13:22:14;34.60;;;15.88;;
58468;SDS011;44257;44.804;10.220;2022-10-20T13:24:57;38.50;;;18.20;;
58468;SDS011;44257;44.804;10.220;2022-10-20T13:27:24;33.03;;;15.38;;
58468;SDS011;44257;44.804;10.220;2022-10-20T13:29:50;34.72;;;16.27;;
58468;SDS011;44257;44.804;10.220;2022-10-20T13:35:08;30.38;;;16.85;;
58468;SDS011;44257;44.804;10.220;2022-10-20T13:46:06;33.95;;;15.43;;
58468;SDS011;44257;44.804;10.220;2022-10-20T13:50:55;28.10;;;14.25;;
58468;SDS011;44257;44.804;10.220;2022-10-20T13:53:33;24.70;;;14.03;;
58468;SDS011;44257;44.804;10.220;2022-10-20T13:58:40;27.63;;;13.93;;
58468;SDS011;44257;44.804;10.220;2022-10-20T14:01:21;29.88;;;13.73;;
58468;SDS011;44257;44.804;10.220;2022-10-20T14:03:49;21.63;;;13.27;;
58468;SDS011;44257;44.804;10.220;2022-10-20T14:06:48;26.73;;;15.25;;
58468;SDS011;44257;44.804;10.220;2022-10-20T14:09:13;24.67;;;12.80;;
58468;SDS011;44257;44.804;10.220;2022-10-20T14:11:46;29.40;;;15.05;;
58468;SDS011;44257;44.804;10.220;2022-10-20T14:14:17;31.08;;;17.27;;
58468;SDS011;44257;44.804;10.220;2022-10-20T14:16:48;30.60;;;14.73;;
58468;SDS011;44257;44.804;10.220;2022-10-20T14:19:21;26.27;;;12.75;;
58468;SDS011;44257;44.804;10.220;2022-10-20T14:21:52;30.23;;;16.90;;
58468;SDS011;44257;44.804;10.220;2022-10-20T14:24:33;32.85;;;16.50;;
58468;SDS011;44257;44.804;10.220;2022-10-20T14:27:03;28.67;;;16.92;;
58468;SDS011;44257;44.804;10.220;2022-10-20T14:29:31;28.15;;;14.95;;
58468;SDS011;44257;44.804;10.220;2022-10-20T14:32:01;25.10;;;13.13;;
58468;SDS011;44257;44.804;10.220;2022-10-20T14:34:29;31.25;;;15.52;;
58468;SDS011;44257;44.804;10.220;2022-10-20T14:36:58;29.45;;;14.40;;
58468;SDS011;44257;44.804;10.220;2022-10-20T14:41:56;31.73;;;16.42;;
58468;SDS011;44257;44.804;10.220;2022-10-20T14:44:24;25.08;;;13.77;;
58468;SDS011;44257;44.804;10.220;2022-10-20T14:46:53;39.47;;;14.02;;
58468;SDS011;44257;44.804;10.220;2022-10-20T14:49:23;32.20;;;15.98;;
58468;SDS011;44257;44.804;10.220;2022-10-20T14:52:17;28.65;;;14.82;;
58468;SDS011;44257;44.804;10.220;2022-10-20T14:54:41;25.70;;;12.38;;
58468;SDS011;44257;44.804;10.220;2022-10-20T14:59:34;28.48;;;13.45;;
58468;SDS011;44257;44.804;10.220;2022-10-20T15:02:14;34.05;;;15.90;;
58468;SDS011;44257;44.804;10.220;2022-10-20T15:04:44;27.77;;;14.10;;
58468;SDS011;44257;44.804;10.220;2022-10-20T15:07:16;18.77;;;12.40;;
58468;SDS011;44257;44.804;10.220;2022-10-20T15:09:49;24.55;;;12.80;;
58468;SDS011;44257;44.804;10.220;2022-10-20T15:12:31;32.90;;;15.82;;
58468;SDS011;44257;44.804;10.220;2022-10-20T15:22:54;25.65;;;13.82;;
58468;SDS011;44257;44.804;10.220;2022-10-20T15:25:21;23.80;;;14.48;;
58468;SDS011;44257;44.804;10.220;2022-10-20T15:27:48;30.95;;;13.85;;
58468;SDS011;44257;44.804;10.220;2022-10-20T15:30:15;22.55;;;13.10;;
58468;SDS011;44257;44.804;10.220;2022-10-20T15:32:42;29.67;;;14.82;;
58468;SDS011;44257;44.804;10.220;2022-10-20T15:35:12;25.55;;;11.68;;
58468;SDS011;44257;44.804;10.220;2022-10-20T15:40:06;27.65;;;13.20;;
58468;SDS011;44257;44.804;10.220;2022-10-20T15:42:33;28.90;;;15.15;;
58468;SDS011;44257;44.804;10.220;2022-10-20T15:44:59;32.70;;;13.18;;
58468;SDS011;44257;44.804;10.220;2022-10-20T15:47:25;21.58;;;13.40;;
58468;SDS011;44257;44.804;10.220;2022-10-20T15:49:51;27.67;;;13.90;;
58468;SDS011;44257;44.804;10.220;2022-10-20T15:52:16;31.45;;;13.90;;
58468;SDS011;44257;44.804;10.220;2022-10-20T15:54:42;30.25;;;14.07;;
58468;SDS011;44257;44.804;10.220;2022-10-20T15:57:08;26.00;;;13.27;;
58468;SDS011;44257;44.804;10.220;2022-10-20T15:59:34;24.83;;;12.98;;
58468;SDS011;44257;44.804;10.220;2022-10-20T16:02:00;25.05;;;13.45;;
58468;SDS011;44257;44.804;10.220;2022-10-20T16:04:26;27.83;;;15.35;;
58468;SDS011;44257;44.804;10.220;2022-10-20T16:06:53;26.92;;;16.00;;
58468;SDS011;44257;44.804;10.220;2022-10-20T16:09:20;18.35;;;11.40;;
58468;SDS011;44257;44.804;10.220;2022-10-20T16:11:46;24.10;;;14.60;;
58468;SDS011;44257;44.804;10.220;2022-10-20T16:14:12;20.98;;;10.93;;
58468;SDS011;44257;44.804;10.220;2022-10-20T16:16:40;30.52;;;12.18;;
58468;SDS011;44257;44.804;10.220;2022-10-20T16:19:06;26.08;;;13.20;;
58468;SDS011;44257;44.804;10.220;2022-10-20T16:21:32;25.35;;;12.98;;
58468;SDS011;44257;44.804;10.220;2022-10-20T16:23:58;23.27;;;11.60;;
58468;SDS011;44257;44.804;10.220;2022-10-20T16:26:25;28.80;;;14.27;;
58468;SDS011;44257;44.804;10.220;2022-10-20T16:28:51;23.77;;;13.07;;
58468;SDS011;44257;44.804;10.220;2022-10-20T16:31:17;28.38;;;15.90;;
58468;SDS011;44257;44.804;10.220;2022-10-20T16:33:44;25.08;;;13.63;;
58468;SDS011;44257;44.804;10.220;2022-10-20T16:36:11;27.80;;;12.32;;
58468;SDS011;44257;44.804;10.220;2022-10-20T16:38:39;29.98;;;16.58;;
58468;SDS011;44257;44.804;10.220;2022-10-20T16:41:07;29.23;;;14.38;;
58468;SDS011;44257;44.804;10.220;2022-10-20T16:43:38;24.63;;;13.80;;
58468;SDS011;44257;44.804;10.220;2022-10-20T16:46:06;24.17;;;12.93;;
58468;SDS011;44257;44.804;10.220;2022-10-20T16:48:32;28.60;;;13.32;;
58468;SDS011;44257;44.804;10.220;2022-10-20T16:50:58;27.52;;;12.13;;
58468;SDS011;44257;44.804;10.220;2022-10-20T16:53:24;30.50;;;13.93;;
58468;SDS011;44257;44.804;10.220;2022-10-20T16:55:53;28.48;;;15.80;;
58468;SDS011;44257;44.804;10.220;2022-10-20T16:58:20;20.73;;;12.38;;
58468;SDS011;44257;44.804;10.220;2022-10-20T17:01:00;24.75;;;13.00;;
58468;SDS011;44257;44.804;10.220;2022-10-20T17:03:28;30.40;;;15.02;;
58468;SDS011;44257;44.804;10.220;2022-10-20T17:05:55;24.17;;;13.05;;
58468;SDS011;44257;44.804;10.220;2022-10-20T17:08:26;22.25;;;12.98;;
58468;SDS011;44257;44.804;10.220;2022-10-20T17:11:04;21.33;;;12.93;;
58468;SDS011;44257;44.804;10.220;2022-10-20T17:13:32;23.55;;;12.13;;
58468;SDS011;44257;44.804;10.220;2022-10-20T17:16:19;24.48;;;13.55;;
58468;SDS011;44257;44.804;10.220;2022-10-20T17:18:47;24.75;;;13.85;;
58468;SDS011;44257;44.804;10.220;2022-10-20T17:21:13;23.77;;;12.82;;
58468;SDS011;44257;44.804;10.220;2022-10-20T17:23:41;30.75;;;13.90;;
58468;SDS011;44257;44.804;10.220;2022-10-20T17:26:10;26.92;;;14.23;;
58468;SDS011;44257;44.804;10.220;2022-10-20T17:28:37;23.13;;;15.13;;
58468;SDS011;44257;44.804;10.220;2022-10-20T17:31:07;27.73;;;14.65;;
58468;SDS011;44257;44.804;10.220;2022-10-20T17:33:35;29.40;;;15.30;;
58468;SDS011;44257;44.804;10.220;2022-10-20T17:36:01;28.33;;;15.48;;
58468;SDS011;44257;44.804;10.220;2022-10-20T17:38:27;34.42;;;15.73;;
58468;SDS011;44257;44.804;10.220;2022-10-20T17:40:54;29.77;;;16.17;;
58468;SDS011;44257;44.804;10.220;2022-10-20T17:43:20;27.08;;;14.77;;
58468;SDS011;44257;44.804;10.220;2022-10-20T17:48:31;29.58;;;16.67;;
58468;SDS011;44257;44.804;10.220;2022-10-20T17:50:59;26.23;;;15.25;;
58468;SDS011;44257;44.804;10.220;2022-10-20T17:53:26;29.77;;;16.42;;
58468;SDS011;44257;44.804;10.220;2022-10-20T17:55:54;34.97;;;16.20;;
58468;SDS011;44257;44.804;10.220;2022-10-20T17:58:25;28.08;;;14.77;;
58468;SDS011;44257;44.804;10.220;2022-10-20T18:00:51;22.27;;;11.40;;
58468;SDS011;44257;44.804;10.220;2022-10-20T18:03:17;24.15;;;14.23;;
58468;SDS011;44257;44.804;10.220;2022-10-20T18:05:43;37.83;;;16.70;;
58468;SDS011;44257;44.804;10.220;2022-10-20T18:08:08;35.65;;;16.50;;
58468;SDS011;44257;44.804;10.220;2022-10-20T18:10:39;30.33;;;18.42;;
58468;SDS011;44257;44.804;10.220;2022-10-20T18:13:06;26.10;;;14.07;;
58468;SDS011;44257;44.804;10.220;2022-10-20T18:15:32;38.95;;;17.77;;
58468;SDS011;44257;44.804;10.220;2022-10-20T18:17:58;30.55;;;16.20;;
58468;SDS011;44257;44.804;10.220;2022-10-20T18:20:41;30.75;;;16.02;;
58468;SDS011;44257;44.804;10.220;2022-10-20T18:23:46;30.05;;;14.15;;
58468;SDS011;44257;44.804;10.220;2022-10-20T18:26:16;25.90;;;16.75;;
58468;SDS011;44257;44.804;10.220;2022-10-20T18:28:44;32.20;;;14.93;;
58468;SDS011;44257;44.804;10.220;2022-10-20T18:31:12;34.30;;;17.02;;
58468;SDS011;44257;44.804;10.220;2022-10-20T18:33:44;29.30;;;15.88;;
58468;SDS011;44257;44.804;10.220;2022-10-20T18:36:12;30.63;;;17.30;;
58468;SDS011;44257;44.804;10.220;2022-10-20T18:38:39;35.25;;;16.27;;
58468;SDS011;44257;44.804;10.220;2022-10-20T18:41:11;37.65;;;17.88;;
58468;SDS011;44257;44.804;10.220;2022-10-20T18:43:57;35.90;;;16.35;;
58468;SDS011;44257;44.804;10.220;2022-10-20T18:46:24;33.50;;;17.23;;
58468;SDS011;44257;44.804;10.220;2022-10-20T18:48:51;27.95;;;15.00;;
58468;SDS011;44257;44.804;10.220;2022-10-20T18:51:17;34.72;;;15.52;;
58468;SDS011;44257;44.804;10.220;2022-10-20T18:53:45;36.63;;;19.98;;